Terminal Aerodrome Forecast
Issued by NWS

Home | Current Version | Previous Version | Text Only | Print | Product List | Glossary On
Versions: 1 2 3 4 5 6 7 8 9 10 11 12 13 14 15 16 17 18 19 20 21
000
FTUS46 KOTX 222327
TAFMWH
TAF
KMWH 222327Z 2300/2324 17010KT P6SM VCSH SCT040 BKN200
     FM230200 23006KT P6SM SKC
     FM231200 21004KT P6SM VCFG FEW001 SCT200
     FM231500 19006KT P6SM BKN200=

USA.gov is the U.S. government's official web portal to all federal, state and local government web resources and services.